Time;durP1;ratioP1;P1;durP2;ratioP2;P2;SDS_P1;SDS_P2;PMS_P1;PMS_P2;Temp;Humidity;BMP_temperature;BMP_pressure;BME280_temperature;BME280_humidity;BME280_pressure;Samples;Min_cycle;Max_cycle;Signal;HPM_P1;HPM_P2
2022/10/12 00:01:01;;;;;;;5.47;3.33;;;;;;;14.35;72.39;101063.19;5016730;28;20391;-75
2022/10/12 00:03:26;;;;;;;5.88;3.60;;;;;;;14.21;72.87;101061.06;5007954;28;20417;-74
2022/10/12 00:06:04;;;;;;;7.60;3.60;;;;;;;14.21;73.05;101053.72;5013067;28;20409;-74
2022/10/12 00:08:29;;;;;;;7.53;3.95;;;;;;;14.24;72.73;101057.84;5014357;28;20463;-75
2022/10/12 00:10:55;;;;;;;13.47;4.30;;;;;;;14.24;72.70;101053.22;5012333;28;20395;-75
2022/10/12 00:13:20;;;;;;;11.77;3.95;;;;;;;14.25;72.73;101049.41;5013259;28;20424;-74
2022/10/12 00:15:45;;;;;;;8.80;4.30;;;;;;;14.24;73.08;101057.84;5013111;28;20397;-74
2022/10/12 00:18:11;;;;;;;8.27;3.87;;;;;;;14.20;72.99;101054.78;5014449;28;20404;-75
2022/10/12 00:20:36;;;;;;;8.30;4.40;;;;;;;14.15;72.90;101053.91;5015906;28;20421;-75
2022/10/12 00:23:02;;;;;;;11.60;4.20;;;;;;;14.14;73.06;101057.72;5013258;28;20419;-75
2022/10/12 00:25:27;;;;;;;9.93;4.18;;;;;;;14.13;73.02;101059.59;5013003;28;20397;-75
2022/10/12 00:27:52;;;;;;;7.67;3.93;;;;;;;14.13;73.20;101056.09;5014246;28;20393;-75
2022/10/12 00:30:18;;;;;;;6.97;3.92;;;;;;;14.10;72.97;101051.94;5015689;28;20884;-75
2022/10/12 00:32:43;;;;;;;9.80;4.00;;;;;;;14.06;73.42;101056.28;5011572;28;20954;-74
2022/10/12 00:35:08;;;;;;;8.30;3.90;;;;;;;14.07;73.41;101055.16;5013030;28;20463;-75
2022/10/12 00:37:34;;;;;;;6.50;3.50;;;;;;;14.06;73.33;101060.88;5012933;28;20778;-75
2022/10/12 00:39:59;;;;;;;10.13;3.97;;;;;;;14.01;73.19;101061.63;5014268;28;20904;-75
2022/10/12 00:42:24;;;;;;;7.53;4.00;;;;;;;14.00;73.25;101055.34;5013909;28;20818;-75
2022/10/12 00:44:50;;;;;;;9.03;3.97;;;;;;;14.01;73.33;101054.28;5014118;28;20397;-75
2022/10/12 00:47:25;;;;;;;10.13;3.90;;;;;;;13.97;73.21;101052.31;5029244;28;20396;-75
2022/10/12 00:49:58;;;;;;;8.60;3.70;;;;;;;13.96;73.41;101054.22;5012947;28;20839;-75
2022/10/12 00:52:28;;;;;;;11.65;4.20;;;;;;;13.95;73.35;101052.59;5014747;28;20443;-75
2022/10/12 00:54:54;;;;;;;6.90;3.43;;;;;;;13.92;72.87;101055.81;5013094;28;20397;-75
2022/10/12 00:57:21;;;;;;;7.30;3.40;;;;;;;13.92;72.64;101060.44;5013806;28;20423;-75
2022/10/12 00:59:55;;;;;;;7.00;3.53;;;;;;;13.88;72.87;101054.66;5010359;28;20488;-75
2022/10/12 01:02:24;;;;;;;11.20;3.20;;;;;;;13.86;72.79;101058.72;5000902;28;20779;-75
2022/10/12 01:04:50;;;;;;;6.95;3.40;;;;;;;13.86;72.54;101064.97;5012782;28;20485;-74
2022/10/12 01:07:15;;;;;;;8.63;3.40;;;;;;;13.86;72.66;101064.97;5013383;28;20898;-75
2022/10/12 01:09:41;;;;;;;8.60;4.03;;;;;;;13.85;72.70;101070.69;5015415;28;20420;-74
2022/10/12 01:12:10;;;;;;;10.63;3.38;;;;;;;13.82;72.83;101071.19;5011310;28;20498;-75
2022/10/12 01:14:35;;;;;;;7.78;3.30;;;;;;;13.76;72.81;101066.75;5013810;28;20392;-75
2022/10/12 01:17:13;;;;;;;7.93;3.28;;;;;;;13.74;72.71;101067.00;5013735;28;20416;-75
2022/10/12 01:19:50;;;;;;;10.63;3.17;;;;;;;13.71;72.94;101066.66;5015811;28;20395;-75
2022/10/12 01:22:18;;;;;;;8.70;2.75;;;;;;;13.66;72.44;101072.06;5010268;28;20424;-75
2022/10/12 01:24:53;;;;;;;8.55;2.97;;;;;;;13.63;72.71;101067.94;5013763;28;20396;-75
2022/10/12 01:27:53;;;;;;;10.53;3.90;;;;;;;13.66;72.31;101064.72;5010799;28;20490;-75
2022/10/12 01:30:21;;;;;;;12.20;3.33;;;;;;;13.68;72.65;101053.53;5002283;28;20435;-75
2022/10/12 01:32:55;;;;;;;10.15;3.38;;;;;;;13.70;72.23;101060.38;5002420;28;20448;-75
2022/10/12 01:35:24;;;;;;;6.63;3.33;;;;;;;13.70;72.10;101060.38;5014585;28;20400;-74
2022/10/12 01:38:23;;;;;;;7.57;2.95;;;;;;;13.66;72.42;101055.72;5006118;28;20420;-75
2022/10/12 01:41:09;;;;;;;6.70;3.20;;;;;;;13.63;72.08;101048.88;5013719;28;20385;-74
2022/10/12 01:43:37;;;;;;;10.43;3.58;;;;;;;13.65;71.88;101043.16;5014073;28;20487;-75
2022/10/12 01:46:12;;;;;;;8.68;3.17;;;;;;;13.59;72.20;101049.63;5015696;28;20907;-74
2022/10/12 01:48:38;;;;;;;6.38;2.60;;;;;;;13.49;72.39;101051.13;5012573;28;20424;-74
2022/10/12 01:51:04;;;;;;;6.67;3.37;;;;;;;13.49;72.27;101056.56;5034470;28;20393;-75
2022/10/12 01:54:07;;;;;;;5.53;3.10;;;;;;;13.40;72.79;101062.69;5017102;28;20407;-75
2022/10/12 01:56:46;;;;;;;7.95;3.22;;;;;;;13.38;72.78;101062.09;5015204;28;20482;-74
2022/10/12 01:59:22;;;;;;;8.27;2.95;;;;;;;13.39;72.67;101058.31;5015618;28;20391;-75
2022/10/12 02:02:01;;;;;;;11.00;3.75;;;;;;;13.40;72.49;101055.31;5014644;28;20925;-75
2022/10/12 02:04:38;;;;;;;5.40;2.88;;;;;;;13.42;72.39;101052.34;5012512;28;20459;-75
2022/10/12 02:07:15;;;;;;;7.50;3.40;;;;;;;13.48;72.20;101054.06;5010886;28;20935;-75
2022/10/12 02:09:42;;;;;;;7.03;2.85;;;;;;;13.49;72.21;101050.28;5016803;28;20813;-75
2022/10/12 02:12:14;;;;;;;8.80;3.53;;;;;;;13.51;72.04;101051.69;5016772;28;20396;-75
2022/10/12 02:14:45;;;;;;;7.40;3.10;;;;;;;13.50;72.07;101039.13;5018815;28;20451;-74
2022/10/12 02:17:15;;;;;;;9.57;3.15;;;;;;;13.46;72.32;101051.63;5009663;28;20777;-75
2022/10/12 02:19:46;;;;;;;8.93;4.03;;;;;;;13.50;72.06;101050.03;4998184;28;20828;-75
2022/10/12 02:22:14;;;;;;;8.32;3.25;;;;;;;13.49;71.94;101040.22;5012500;28;20424;-75
2022/10/12 02:24:43;;;;;;;9.73;3.15;;;;;;;13.49;71.90;101036.69;5014579;28;20745;-75
2022/10/12 02:27:11;;;;;;;9.07;3.03;;;;;;;13.52;71.45;101030.72;5012246;28;20417;-75
2022/10/12 02:29:39;;;;;;;8.50;3.35;;;;;;;13.49;71.63;101029.34;5010839;28;20428;-75
2022/10/12 02:32:18;;;;;;;9.77;3.53;;;;;;;13.50;71.63;101033.69;5016471;28;20860;-75
2022/10/12 02:34:49;;;;;;;5.63;2.90;;;;;;;13.47;71.42;101030.63;5016305;28;20397;-75
2022/10/12 02:37:24;;;;;;;6.75;3.30;;;;;;;13.45;71.42;101030.06;5011653;28;20426;-75
2022/10/12 02:39:53;;;;;;;11.73;3.10;;;;;;;13.45;71.64;101039.06;5007188;28;20403;-75
2022/10/12 02:42:28;;;;;;;6.63;3.28;;;;;;;13.44;71.00;101029.25;5017825;28;20475;-75
2022/10/12 02:44:57;;;;;;;6.03;2.93;;;;;;;13.49;70.79;101037.50;5016166;28;20459;-75
2022/10/12 02:47:25;;;;;;;10.35;3.55;;;;;;;13.59;70.31;101031.38;5014485;28;20511;-75
2022/10/12 02:49:54;;;;;;;5.00;3.05;;;;;;;13.52;70.15;101033.44;5016665;28;20396;-75
2022/10/12 02:52:19;;;;;;;8.00;2.83;;;;;;;13.44;70.42;101023.81;5016997;28;20383;-74
2022/10/12 02:54:45;;;;;;;7.67;2.43;;;;;;;13.39;70.57;101028.34;5005389;28;20400;-75
2022/10/12 02:57:10;;;;;;;7.23;3.30;;;;;;;13.37;70.46;101025.06;5012548;28;20413;-75
2022/10/12 02:59:35;;;;;;;8.37;3.03;;;;;;;13.40;70.37;101025.38;5015668;28;20751;-75
2022/10/12 03:02:01;;;;;;;10.60;2.87;;;;;;;13.41;69.70;101027.03;5017848;28;20394;-74
2022/10/12 03:04:26;;;;;;;10.10;3.57;;;;;;;13.36;69.88;101029.69;5015671;28;20392;-75
2022/10/12 03:06:51;;;;;;;12.10;3.10;;;;;;;13.38;69.36;101021.25;5014498;28;20393;-75
2022/10/12 03:09:17;;;;;;;7.70;3.07;;;;;;;13.34;69.60;101029.09;5010759;28;20479;-74
2022/10/12 03:11:43;;;;;;;7.82;3.30;;;;;;;13.22;69.75;101027.53;5014635;28;20485;-75
2022/10/12 03:14:16;;;;;;;9.93;3.33;;;;;;;13.21;69.57;101028.59;5014324;28;20544;-75
2022/10/12 03:16:42;;;;;;;6.90;3.00;;;;;;;13.25;70.13;101024.31;5015560;28;20451;-75
2022/10/12 03:19:08;;;;;;;8.10;2.92;;;;;;;13.23;69.68;101026.47;5008624;28;20810;-75
2022/10/12 03:21:35;;;;;;;7.90;2.83;;;;;;;13.19;70.07;101020.69;5031996;28;20732;-75
2022/10/12 03:24:00;;;;;;;15.20;3.40;;;;;;;13.20;69.88;101026.97;5015566;28;21059;-74
2022/10/12 03:26:26;;;;;;;7.90;2.90;;;;;;;13.21;69.75;101026.72;5014815;28;20437;-75
2022/10/12 03:28:51;;;;;;;7.00;3.20;;;;;;;13.14;69.77;101030.69;5010354;28;20393;-74
2022/10/12 03:31:16;;;;;;;9.03;3.17;;;;;;;13.12;69.79;101030.94;5015579;28;20471;-75
2022/10/12 03:33:42;;;;;;;6.20;2.90;;;;;;;13.15;69.75;101029.59;5015612;28;20397;-74
2022/10/12 03:36:08;;;;;;;8.75;2.92;;;;;;;13.13;69.77;101031.75;5015088;28;20416;-74
2022/10/12 03:38:34;;;;;;;9.50;3.85;;;;;;;13.02;70.02;101025.28;5010630;28;20907;-75
2022/10/12 03:40:59;;;;;;;8.80;2.67;;;;;;;12.94;70.04;101033.88;5015483;28;20397;-75
2022/10/12 03:43:24;;;;;;;5.73;3.00;;;;;;;12.88;70.08;101034.84;5016349;28;20392;-75
2022/10/12 03:45:51;;;;;;;7.50;3.20;;;;;;;12.90;70.07;101032.72;5004040;28;20736;-75
2022/10/12 03:48:16;;;;;;;8.98;3.15;;;;;;;12.88;70.40;101035.66;5011774;28;20417;-75
2022/10/12 03:50:46;;;;;;;6.55;3.38;;;;;;;12.89;70.06;101031.06;5015018;28;20428;-75
2022/10/12 03:53:11;;;;;;;7.75;2.95;;;;;;;12.89;70.13;101036.50;5013090;28;20398;-75
2022/10/12 03:55:37;;;;;;;6.57;2.97;;;;;;;12.92;70.04;101034.09;5014806;28;20397;-75
2022/10/12 03:58:02;;;;;;;10.77;3.33;;;;;;;12.93;70.24;101030.31;5013173;28;20898;-75
2022/10/12 04:00:27;;;;;;;10.70;2.87;;;;;;;12.92;69.92;101034.09;5014841;28;20393;-75
2022/10/12 04:02:53;;;;;;;7.70;3.40;;;;;;;12.83;70.34;101032.03;5013292;28;20391;-75
2022/10/12 04:05:18;;;;;;;6.88;3.25;;;;;;;12.81;70.50;101037.72;5013435;28;20800;-75
2022/10/12 04:07:43;;;;;;;12.03;3.40;;;;;;;12.78;70.31;101045.53;5006162;28;20425;-75
2022/10/12 04:10:09;;;;;;;6.40;3.53;;;;;;;12.77;70.37;101043.91;5014590;28;20405;-75
2022/10/12 04:12:34;;;;;;;8.43;3.17;;;;;;;12.70;70.48;101035.06;5016217;28;20404;-75
2022/10/12 04:14:59;;;;;;;8.53;2.90;;;;;;;12.66;70.82;101047.50;5013481;28;20404;-74
2022/10/12 04:17:24;;;;;;;10.33;3.67;;;;;;;12.69;70.25;101039.69;5009205;28;20428;-75
2022/10/12 04:19:50;;;;;;;9.23;3.22;;;;;;;12.68;70.40;101042.66;5003461;28;20528;-75
2022/10/12 04:22:15;;;;;;;9.90;3.13;;;;;;;12.63;70.19;101037.94;5017880;28;20391;-75
2022/10/12 04:24:40;;;;;;;8.30;2.80;;;;;;;12.71;70.28;101042.16;5014792;28;20387;-75
2022/10/12 04:27:06;;;;;;;9.27;3.03;;;;;;;12.76;69.90;101044.97;5009518;28;20951;-75
2022/10/12 04:29:31;;;;;;;5.40;3.10;;;;;;;12.76;70.08;101045.78;5008992;28;20471;-74
2022/10/12 04:31:57;;;;;;;7.47;3.40;;;;;;;12.75;70.19;101054.19;5010693;28;20407;-74
2022/10/12 04:34:22;;;;;;;7.53;2.50;;;;;;;12.74;70.35;101052.56;5012466;28;20399;-74
2022/10/12 04:36:47;;;;;;;10.83;3.47;;;;;;;12.69;70.01;101053.28;5007604;28;20408;-75
2022/10/12 04:39:13;;;;;;;7.87;3.17;;;;;;;12.66;70.64;101063.81;5004907;28;20408;-74
2022/10/12 04:41:38;;;;;;;7.57;3.10;;;;;;;12.60;70.66;101065.63;5013116;28;20397;-74
2022/10/12 04:44:05;;;;;;;5.00;3.00;;;;;;;12.64;70.35;101061.34;5015359;28;20404;-74
2022/10/12 04:46:30;;;;;;;7.95;3.55;;;;;;;12.65;70.49;101070.31;5011962;28;20526;-74
2022/10/12 04:48:56;;;;;;;9.43;3.30;;;;;;;12.62;70.80;101068.91;5009604;28;20409;-75
2022/10/12 04:51:21;;;;;;;8.73;3.27;;;;;;;12.65;70.44;101065.69;5013337;28;20508;-75
2022/10/12 04:53:46;;;;;;;8.57;2.92;;;;;;;12.65;70.54;101078.47;5009439;28;20823;-74
2022/10/12 04:56:12;;;;;;;13.40;4.27;;;;;;;12.55;70.90;101081.81;4997762;28;20408;-74
2022/10/12 04:58:37;;;;;;;15.13;5.20;;;;;;;12.45;71.35;101079.72;5007450;28;20756;-75
2022/10/12 05:01:02;;;;;;;9.55;4.13;;;;;;;12.51;71.32;101082.56;4999491;28;20538;-74
2022/10/12 05:03:28;;;;;;;9.93;3.33;;;;;;;12.58;70.78;101084.06;5004889;28;20406;-75
2022/10/12 05:05:53;;;;;;;7.90;3.70;;;;;;;12.63;70.74;101084.16;5010956;28;20797;-75
2022/10/12 05:08:18;;;;;;;12.63;3.20;;;;;;;12.66;70.72;101082.84;5012280;28;20484;-74
2022/10/12 05:10:45;;;;;;;10.07;3.27;;;;;;;12.68;70.22;101080.72;5022580;28;20400;-75
2022/10/12 05:13:11;;;;;;;10.00;3.20;;;;;;;12.66;70.44;101071.97;5013784;28;20401;-75
2022/10/12 05:15:37;;;;;;;7.87;2.80;;;;;;;12.64;70.46;101079.56;5006243;28;20453;-74
2022/10/12 05:18:02;;;;;;;11.95;3.50;;;;;;;12.61;70.30;101080.03;5008094;28;20416;-75
2022/10/12 05:20:27;;;;;;;6.30;2.80;;;;;;;12.59;70.25;101072.13;5017918;28;20431;-74
2022/10/12 05:22:53;;;;;;;13.67;3.63;;;;;;;12.59;70.41;101066.69;5003111;28;20417;-77
2022/10/12 05:25:20;;;;;;;11.03;4.07;;;;;;;12.62;70.21;101074.34;5031153;28;20443;-80
2022/10/12 05:27:46;;;;;;;7.40;3.25;;;;;;;12.62;70.60;101074.34;5001738;28;20417;-75
2022/10/12 05:30:11;;;;;;;13.80;2.90;;;;;;;12.63;70.70;101073.28;5014662;28;20401;-75
2022/10/12 05:32:36;;;;;;;10.57;3.38;;;;;;;12.62;70.47;101076.25;5012745;28;20408;-75
2022/10/12 05:35:02;;;;;;;10.10;3.10;;;;;;;12.63;70.36;101075.19;5017977;28;20385;-75
2022/10/12 05:37:27;;;;;;;8.67;2.83;;;;;;;12.63;70.52;101067.84;5018842;28;20414;-75
2022/10/12 05:39:52;;;;;;;8.17;2.90;;;;;;;12.64;70.61;101063.25;5017028;28;20423;-78
2022/10/12 05:42:18;;;;;;;7.60;3.17;;;;;;;12.57;70.52;101070.72;5009427;28;20486;-75
2022/10/12 05:44:43;;;;;;;11.90;2.90;;;;;;;12.64;70.84;101077.66;5003324;28;20455;-75
2022/10/12 05:47:09;;;;;;;7.07;3.03;;;;;;;12.65;70.59;101071.13;5014813;28;20884;-75
2022/10/12 05:49:34;;;;;;;8.15;3.20;;;;;;;12.67;70.54;101070.91;5009017;28;20397;-76
2022/10/12 05:51:59;;;;;;;8.00;3.10;;;;;;;12.59;71.17;101074.84;5017181;28;20893;-75
2022/10/12 05:54:24;;;;;;;7.57;2.78;;;;;;;12.56;70.88;101072.59;5011674;28;20427;-75
2022/10/12 05:56:50;;;;;;;7.80;3.33;;;;;;;12.62;71.11;101071.63;5018723;28;20408;-76
2022/10/12 05:59:15;;;;;;;10.93;3.30;;;;;;;12.67;71.12;101077.19;5015580;28;20420;-75
2022/10/12 06:01:40;;;;;;;8.73;3.00;;;;;;;12.65;71.04;101083.91;5008998;28;20412;-75
2022/10/12 06:04:06;;;;;;;12.40;3.50;;;;;;;12.65;71.29;101087.47;5014581;28;20409;-75
2022/10/12 06:06:31;;;;;;;6.72;2.78;;;;;;;12.67;71.16;101079.91;5017555;28;20536;-75
2022/10/12 06:08:56;;;;;;;7.60;3.73;;;;;;;12.72;71.19;101085.41;5014230;28;20421;-76
2022/10/12 06:11:22;;;;;;;7.10;3.20;;;;;;;12.74;71.15;101085.19;5016770;28;20408;-75
2022/10/12 06:13:47;;;;;;;7.07;3.33;;;;;;;12.77;70.76;101092.84;5016988;28;20385;-75
2022/10/12 06:16:13;;;;;;;9.18;3.55;;;;;;;12.77;70.96;101093.69;5002788;28;20457;-75
2022/10/12 06:18:39;;;;;;;9.53;4.03;;;;;;;12.79;71.15;101096.16;5004402;28;20481;-76
2022/10/12 06:21:04;;;;;;;11.90;4.10;;;;;;;12.76;71.09;101093.91;5013920;28;20397;-75
2022/10/12 06:23:30;;;;;;;6.93;3.78;;;;;;;12.76;71.07;101096.63;5016481;28;20748;-75
2022/10/12 06:25:55;;;;;;;12.20;3.67;;;;;;;12.76;71.43;101096.63;5016517;28;20893;-76
2022/10/12 06:28:20;;;;;;;8.13;3.23;;;;;;;12.78;71.12;101091.78;5018491;28;20433;-75
2022/10/12 06:30:52;;;;;;;8.33;3.60;;;;;;;12.79;71.11;101099.69;5011043;28;20417;-76
2022/10/12 06:33:18;;;;;;;8.00;4.13;;;;;;;12.80;70.93;101101.34;5013474;28;20401;-76
2022/10/12 06:35:43;;;;;;;8.07;3.87;;;;;;;12.83;70.85;101102.75;5012695;28;20393;-76
2022/10/12 06:38:08;;;;;;;8.33;3.33;;;;;;;12.85;70.70;101101.44;5017992;28;20428;-76
2022/10/12 06:40:33;;;;;;;6.67;3.20;;;;;;;12.84;70.49;101104.41;5015996;28;20799;-76
2022/10/12 06:43:01;;;;;;;7.50;3.00;;;;;;;12.87;70.30;101114.81;5014316;28;20489;-76
2022/10/12 06:45:28;;;;;;;11.25;3.13;;;;;;;12.89;70.40;101102.59;5003275;28;20853;-76
2022/10/12 06:47:54;;;;;;;13.38;3.92;;;;;;;12.90;70.21;101101.53;5015813;28;20815;-76
2022/10/12 06:50:19;;;;;;;7.20;3.13;;;;;;;12.90;70.38;101100.72;5011095;28;20408;-76
2022/10/12 06:52:45;;;;;;;10.70;4.83;;;;;;;12.99;70.12;101105.50;5016405;28;20401;-75
2022/10/12 06:55:14;;;;;;;11.23;5.15;;;;;;;13.10;70.13;101098.38;5009914;28;20501;-75
2022/10/12 06:57:39;;;;;;;8.30;3.65;;;;;;;13.13;69.80;101091.63;5010642;28;20423;-75
2022/10/12 07:00:06;;;;;;;5.15;3.38;;;;;;;13.17;69.91;101096.31;5009173;28;20762;-75
2022/10/12 07:02:32;;;;;;;9.23;3.80;;;;;;;13.12;70.11;101098.97;5004640;28;20424;-75
2022/10/12 07:04:57;;;;;;;10.93;3.03;;;;;;;13.12;69.88;101096.25;5011342;28;20422;-75
2022/10/12 07:07:23;;;;;;;7.13;3.00;;;;;;;13.13;69.98;101100.63;5011813;28;20409;-75
2022/10/12 07:09:48;;;;;;;9.70;3.83;;;;;;;13.13;69.75;101102.50;5001931;28;20477;-75
2022/10/12 07:12:13;;;;;;;9.10;4.60;;;;;;;13.17;69.73;101107.19;5014290;28;20392;-75
2022/10/12 07:14:39;;;;;;;13.00;4.13;;;;;;;13.20;69.92;101101.28;5009316;28;20766;-76
2022/10/12 07:17:04;;;;;;;11.80;4.00;;;;;;;13.25;69.57;101108.69;5002501;28;20410;-75
2022/10/12 07:19:29;;;;;;;14.43;4.07;;;;;;;13.30;69.74;101101.47;5013623;28;20908;-75
2022/10/12 07:21:55;;;;;;;14.68;3.53;;;;;;;13.28;69.51;101108.19;5009652;28;21285;-75
2022/10/12 07:24:20;;;;;;;14.37;4.47;;;;;;;13.29;69.70;101110.69;5008918;28;20500;-75
2022/10/12 07:26:45;;;;;;;9.40;4.10;;;;;;;13.27;69.61;101109.28;5004099;28;20417;-76
2022/10/12 07:29:11;;;;;;;13.17;4.67;;;;;;;13.23;69.53;101108.13;5013434;28;20401;-75
2022/10/12 07:31:36;;;;;;;8.73;4.23;;;;;;;13.14;69.80;101106.88;5013975;28;20472;-76
2022/10/12 07:34:02;;;;;;;10.85;4.40;;;;;;;13.13;70.17;101113.41;5013280;28;20771;-76
2022/10/12 07:36:27;;;;;;;10.80;5.33;;;;;;;13.16;70.22;101116.44;5008312;28;20497;-76
2022/10/12 07:38:52;;;;;;;13.63;6.00;;;;;;;13.27;70.16;101115.53;5010059;28;20851;-75
2022/10/12 07:41:18;;;;;;;11.60;4.90;;;;;;;13.32;70.09;101110.19;5015943;28;20391;-76
2022/10/12 07:43:43;;;;;;;12.05;5.43;;;;;;;13.32;70.37;101106.63;5005254;28;20792;-75
2022/10/12 07:46:10;;;;;;;14.33;4.87;;;;;;;13.31;70.31;101104.97;5008515;28;20400;-75
2022/10/12 07:48:35;;;;;;;10.85;5.25;;;;;;;13.31;70.35;101105.81;5007764;28;20389;-76
2022/10/12 07:51:05;;;;;;;14.00;5.50;;;;;;;13.35;70.65;101101.53;5010459;28;20673;-76
2022/10/12 07:53:33;;;;;;;12.48;5.75;;;;;;;13.36;70.43;101103.19;5013117;28;20946;-76
2022/10/12 07:56:00;;;;;;;13.90;5.78;;;;;;;13.39;70.47;101091.81;5011686;28;20401;-75
2022/10/12 07:58:26;;;;;;;11.13;6.00;;;;;;;13.45;70.41;101088.09;5016548;28;20395;-76
2022/10/12 08:00:51;;;;;;;15.57;6.07;;;;;;;13.51;70.28;101095.25;5022308;28;20475;-76
2022/10/12 08:03:16;;;;;;;20.75;12.63;;;;;;;13.55;69.95;101098.31;5010684;28;20418;-76
2022/10/12 08:05:42;;;;;;;18.23;6.30;;;;;;;13.57;70.21;101098.06;5021915;28;20839;-76
2022/10/12 08:08:07;;;;;;;14.50;5.87;;;;;;;13.59;70.25;101096.75;5007003;28;20425;-75
2022/10/12 08:10:34;;;;;;;14.77;6.38;;;;;;;13.62;70.56;101101.69;5027432;28;20866;-76
2022/10/12 08:12:59;;;;;;;17.13;6.90;;;;;;;13.64;70.53;101109.59;5023720;28;20392;-75
2022/10/12 08:15:24;;;;;;;14.87;6.73;;;;;;;13.55;70.63;101108.38;5026259;28;20740;-75
2022/10/12 08:17:50;;;;;;;19.33;6.67;;;;;;;13.47;70.88;101110.44;5012012;28;20419;-76
2022/10/12 08:20:15;;;;;;;12.87;6.17;;;;;;;13.55;71.10;101111.91;5020281;28;20818;-75
2022/10/12 08:22:40;;;;;;;16.77;6.53;;;;;;;13.60;70.66;101109.25;5024730;28;20395;-75
2022/10/12 08:25:06;;;;;;;12.63;6.40;;;;;;;13.62;70.88;101114.47;5024581;28;20400;-75
2022/10/12 08:27:31;;;;;;;12.63;5.95;;;;;;;13.68;70.77;101114.31;5008580;28;20500;-75
2022/10/12 08:29:56;;;;;;;16.00;7.30;;;;;;;13.69;70.92;101118.69;5023128;28;20800;-75
2022/10/12 08:32:22;;;;;;;17.00;8.02;;;;;;;13.71;70.92;101119.25;5018493;28;20486;-75
2022/10/12 08:34:47;;;;;;;15.37;7.40;;;;;;;13.69;71.22;101124.13;5022567;28;20400;-76
2022/10/12 08:37:12;;;;;;;13.80;7.10;;;;;;;13.69;70.95;101117.84;5019911;28;20433;-76
2022/10/12 08:39:37;;;;;;;17.00;7.45;;;;;;;13.75;70.93;101111.41;5026943;28;20449;-75
2022/10/12 08:42:21;;;;;;;18.87;7.90;;;;;;;13.83;70.95;101108.28;5026617;28;20396;-76
2022/10/12 08:44:54;;;;;;;18.77;7.80;;;;;;;13.88;70.97;101111.88;5005365;28;20774;-76
2022/10/12 08:47:28;;;;;;;19.47;7.77;;;;;;;13.92;70.99;101115.75;5013618;28;20462;-75
2022/10/12 08:49:53;;;;;;;21.77;8.05;;;;;;;13.99;70.68;101115.59;5023536;28;20475;-75
2022/10/12 08:52:30;;;;;;;13.87;7.67;;;;;;;13.95;71.13;101108.97;5018012;28;20561;-76
2022/10/12 08:55:05;;;;;;;15.73;7.72;;;;;;;13.98;71.02;101112.03;5004412;28;20387;-76
2022/10/12 08:57:30;;;;;;;16.45;8.20;;;;;;;14.12;70.84;101104.31;5013843;28;20784;-76
2022/10/12 08:59:57;;;;;;;17.83;8.77;;;;;;;14.20;70.93;101108.47;5018248;28;20379;-75
2022/10/12 09:02:50;;;;;;;17.50;8.73;;;;;;;14.24;70.66;101112.34;5020975;28;20447;-76
2022/10/12 09:05:29;;;;;;;14.40;7.93;;;;;;;14.29;70.87;101110.50;5015931;28;20437;-76
2022/10/12 09:08:15;;;;;;;22.23;7.95;;;;;;;14.45;70.46;101109.69;5012437;28;20437;-75
2022/10/12 09:10:45;;;;;;;14.98;7.63;;;;;;;14.65;70.09;101117.28;5004852;28;20387;-76
2022/10/12 09:13:25;;;;;;;12.97;7.67;;;;;;;14.83;69.51;101118.81;5024620;28;20904;-75
2022/10/12 09:16:20;;;;;;;15.98;7.85;;;;;;;14.77;69.75;101114.38;5019414;28;20810;-76
2022/10/12 09:18:51;;;;;;;17.10;8.13;;;;;;;14.89;69.52;101115.06;5007869;28;20406;-75
2022/10/12 09:21:20;;;;;;;15.13;8.18;;;;;;;15.34;68.13;101114.66;5026485;28;20390;-76
2022/10/12 09:23:46;;;;;;;18.52;9.00;;;;;;;15.33;67.69;101113.00;5021653;28;20898;-76
2022/10/12 09:26:11;;;;;;;19.05;8.82;;;;;;;15.16;68.35;101109.59;5025054;28;20397;-75
2022/10/12 09:29:18;;;;;;;17.87;7.83;;;;;;;15.10;68.58;101114.19;5018813;28;20808;-75
2022/10/12 09:32:23;;;;;;;14.50;7.85;;;;;;;15.03;68.77;101119.03;5005427;28;20401;-75
2022/10/12 09:34:48;;;;;;;19.58;8.20;;;;;;;15.06;69.22;101127.53;5005720;28;20581;-75
2022/10/12 09:37:19;;;;;;;17.93;7.93;;;;;;;15.16;69.14;101115.03;5025415;28;20522;-76
2022/10/12 09:39:45;;;;;;;19.80;7.30;;;;;;;15.44;69.35;101117.50;5004740;28;20436;-75
2022/10/12 09:42:11;;;;;;;18.05;7.50;;;;;;;16.71;65.65;101128.09;5017234;28;20868;-75
2022/10/12 09:44:41;;;;;;;18.50;7.83;;;;;;;17.85;61.50;101122.16;5013823;28;20411;-75
2022/10/12 09:47:28;;;;;;;16.25;7.20;;;;;;;18.52;59.87;101127.22;5010886;28;20405;-76
2022/10/12 09:49:57;;;;;;;15.10;6.75;;;;;;;18.76;59.19;101124.63;5006670;28;20465;-75
2022/10/12 09:52:29;;;;;;;12.25;6.47;;;;;;;18.76;59.24;101129.28;5006099;28;20399;-75
2022/10/12 09:54:58;;;;;;;14.83;7.63;;;;;;;19.29;57.68;101120.16;5024276;28;20430;-76
2022/10/12 09:57:29;;;;;;;15.97;7.30;;;;;;;19.80;56.45;101119.72;5020170;28;20511;-76
2022/10/12 09:59:55;;;;;;;16.10;6.70;;;;;;;20.21;55.22;101120.94;5004539;28;20430;-76
2022/10/12 10:02:23;;;;;;;15.38;6.82;;;;;;;20.60;54.69;101124.34;5018686;28;20750;-76
2022/10/12 10:04:49;;;;;;;13.53;7.07;;;;;;;20.87;53.82;101118.19;5026016;28;20395;-76
2022/10/12 10:07:23;;;;;;;15.00;6.70;;;;;;;21.44;52.11;101107.97;5026181;28;20475;-75
2022/10/12 10:10:16;;;;;;;18.80;7.05;;;;;;;22.15;50.60;101113.03;5029555;28;20391;-76
2022/10/12 10:12:47;;;;;;;11.13;6.50;;;;;;;22.87;49.30;101115.97;5012571;28;20923;-75
2022/10/12 10:15:34;;;;;;;14.02;7.80;;;;;;;23.41;47.39;101115.81;5013902;28;20449;-75
2022/10/12 10:18:35;;;;;;;14.57;6.43;;;;;;;23.64;46.98;101109.13;5020796;28;20427;-78
2022/10/12 10:21:03;;;;;;;11.50;6.40;;;;;;;23.98;45.79;101108.47;5021139;28;20409;-76
2022/10/12 10:23:50;;;;;;;13.02;6.43;;;;;;;24.04;44.79;101112.72;5026170;28;20445;-76
2022/10/12 10:26:18;;;;;;;13.23;6.93;;;;;;;23.87;44.65;101104.38;5029583;28;20406;-76
2022/10/12 10:28:46;;;;;;;9.50;6.13;;;;;;;22.28;47.77;101100.34;5002978;28;20474;-76
2022/10/12 10:31:26;;;;;;;12.20;6.55;;;;;;;21.05;50.89;101102.75;5027316;28;20449;-76
2022/10/12 10:34:12;;;;;;;10.60;6.32;;;;;;;20.18;53.49;101099.53;5019219;28;20418;-76
2022/10/12 10:36:44;;;;;;;15.90;6.60;;;;;;;19.61;55.00;101112.22;5020962;28;20542;-75
2022/10/12 10:39:31;;;;;;;13.67;6.30;;;;;;;19.30;56.27;101093.50;5007757;28;20427;-75
2022/10/12 10:42:15;;;;;;;16.52;6.68;;;;;;;19.15;56.85;101097.19;5020289;28;20422;-75
2022/10/12 10:44:48;;;;;;;18.02;7.38;;;;;;;19.00;57.66;101094.56;5024794;28;20536;-75
2022/10/12 10:47:13;;;;;;;14.03;7.40;;;;;;;18.89;58.07;101098.47;5023008;28;20760;-76
2022/10/12 10:49:42;;;;;;;15.05;6.72;;;;;;;18.78;58.36;101092.19;4999930;28;20405;-76
2022/10/12 10:52:21;;;;;;;10.38;6.38;;;;;;;18.71;58.68;101080.72;5023373;28;20402;-76
2022/10/12 10:54:48;;;;;;;16.60;6.70;;;;;;;18.69;58.88;101082.94;5021678;28;20415;-76
2022/10/12 10:57:20;;;;;;;12.00;6.60;;;;;;;18.68;59.47;101086.78;5012426;28;20902;-76
2022/10/12 11:00:29;;;;;;;14.35;6.97;;;;;;;18.58;59.76;101086.81;5013340;28;20409;-76
2022/10/12 11:02:57;;;;;;;11.40;6.78;;;;;;;18.50;60.25;101082.75;4996793;28;20398;-79
2022/10/12 11:06:01;;;;;;;16.55;7.65;;;;;;;18.46;60.72;101080.81;5016193;28;20917;-76
2022/10/12 11:08:29;;;;;;;19.10;8.20;;;;;;;18.37;61.02;101075.13;4999755;28;20421;-76
2022/10/12 11:11:20;;;;;;;15.70;7.22;;;;;;;18.25;61.28;101074.59;5021745;28;20413;-76
2022/10/12 11:14:17;;;;;;;18.58;7.40;;;;;;;18.26;61.57;101075.41;5018550;28;20409;-77
2022/10/12 11:16:49;;;;;;;12.75;7.30;;;;;;;18.33;61.87;101070.47;5003344;28;20460;-75
2022/10/12 11:19:29;;;;;;;11.40;6.55;;;;;;;18.33;62.09;101065.78;5015634;28;20406;-76
2022/10/12 11:22:15;;;;;;;13.90;7.20;;;;;;;18.37;61.92;101066.88;5038267;28;20420;-76
2022/10/12 11:24:48;;;;;;;14.23;7.05;;;;;;;18.40;61.65;101058.09;5003842;28;20556;-76
2022/10/12 11:27:22;;;;;;;14.57;7.63;;;;;;;18.33;61.89;101059.47;5014823;28;20412;-76
2022/10/12 11:30:00;;;;;;;18.38;7.82;;;;;;;18.26;62.18;101051.56;5026176;28;20484;-77
2022/10/12 11:32:31;;;;;;;12.97;7.27;;;;;;;18.23;62.58;101049.38;5016911;28;20403;-76